Carmarthen, United Kingdom
Current Conditions -  °F | °C
As of 7:50 PM on Friday 31 Oct 2014 (Local Time) from EGOP Reporting Station
Broken Clouds Broken Clouds  
Wind Chill: 17°   Ceiling: 1700
Heat Index: 17°   Visibility: 4mi
Dew Point: 15°   Wind: 25mph
Humidity: 88%   Direction: 170°S
Pressure: 29.8"   Gusts: NA
Location:  51.86°N, 4.31°W
Report Text: EGOP 311950Z AUTO 17022KT 6000 // BKN017/// 17/15 Q1009
Loading
Personal Weather Stations






























Interactive Weather Map
Tropical Storm Tracking
New forecast layout! Learn more

10-Day Weather Forecast

Advertisements
Track Severe Weather on mobile